»·PEaware :: N5491 KBLH-KSNA

N5491 :: KBLH-KSNA

FLIGHT INFORMATION

Flight Status: Arrived
Operator: Privately registered:
United States
More flights under this callsign
Pilot: Ben H. (9170)
Aircraft: PIPER PA-32 SARATOGA
(PA32)
More flights by this aircraft type
Origin: KBLH Blythe
United States
Destination: KSNA John Wayne-Orange Co
United States
More flights between these airports :: More routes between these airports
Route: +
File this flight plan on PilotEdge
Remarks:
Altitude:
(Current/Filed)
0ft
Speed:
(Current/Filed)
0kts
Departed: 06-Oct-19 08:49 PM
Arrived: 06-Oct-19 09:46 PM
Distance/Time
Traveled:
157nm/0:57
Distance/Time
To Go:
Arrived

Flight Plot

Page will automatically refresh every two minutes.

Flight plan parsing failed; only flown route is shown


Map Options




Map Legend


Flown Route
Filed Route
Departure Airport
Arrival Airport
Navaid (VOR, NDB)
Fix

Horizontal Profiles

Position Reports

Time Latitude Longitude Heading Altitude Ground
Speed
06-Oct-19 20:48 33.621383 -114.800871 276 2794ft 102kts
06-Oct-19 20:49 33.622512 -114.838260 275 3613ft 121kts
06-Oct-19 20:50 33.623781 -114.881182 273 4423ft 134kts
06-Oct-19 20:51 33.625105 -114.926269 273 5256ft 132kts
06-Oct-19 20:52 33.626397 -114.968840 273 6167ft 124kts
06-Oct-19 20:53 33.627560 -115.009234 273 7084ft 120kts
06-Oct-19 20:54 33.628686 -115.049690 272 7853ft 127kts
06-Oct-19 20:55 33.629985 -115.094237 273 8513ft 138kts
06-Oct-19 20:56 33.631289 -115.141552 272 9169ft 145kts
06-Oct-19 20:57 33.632610 -115.190528 272 9824ft 148kts
06-Oct-19 20:58 33.634043 -115.240492 272 10477ft 151kts
06-Oct-19 20:59 33.635387 -115.291307 271 11132ft 152kts
06-Oct-19 20:59 33.636470 -115.333693 271 11707ft 152kts
06-Oct-19 21:01 33.637907 -115.392504 271 12526ft 149kts
06-Oct-19 21:02 33.639127 -115.441536 270 13225ft 145kts
06-Oct-19 21:02 33.640106 -115.481500 270 13807ft 142kts
06-Oct-19 21:04 33.641436 -115.536885 270 14627ft 142kts
06-Oct-19 21:05 33.642523 -115.584080 269 15324ft 142kts
06-Oct-19 21:05 33.643467 -115.623499 269 15906ft 141kts
06-Oct-19 21:06 33.644540 -115.670679 268 16496ft 146kts
06-Oct-19 21:07 33.645785 -115.722479 269 16501ft 166kts
06-Oct-19 21:08 33.647167 -115.779149 269 16501ft 172kts
06-Oct-19 21:09 33.648477 -115.837394 269 16500ft 176kts
06-Oct-19 21:10 33.649745 -115.896540 269 16500ft 177kts
06-Oct-19 21:11 33.650991 -115.955817 269 16501ft 177kts
06-Oct-19 21:12 33.652229 -116.015571 269 16503ft 178kts
06-Oct-19 21:13 33.653425 -116.075407 269 16505ft 179kts
06-Oct-19 21:14 33.654595 -116.134941 269 16464ft 181kts
06-Oct-19 21:15 33.655761 -116.195448 269 16463ft 180kts
06-Oct-19 21:16 33.656856 -116.255250 269 16394ft 183kts
06-Oct-19 21:17 33.658005 -116.318034 269 15797ft 192kts
06-Oct-19 21:18 33.659148 -116.382430 269 15197ft 193kts
06-Oct-19 21:19 33.660196 -116.447450 269 14595ft 195kts
06-Oct-19 21:20 33.661275 -116.512865 270 13993ft 196kts
06-Oct-19 21:21 33.662313 -116.578020 270 13396ft 196kts
06-Oct-19 21:22 33.663337 -116.643302 270 12797ft 195kts
06-Oct-19 21:23 33.664299 -116.708743 270 12220ft 194kts
06-Oct-19 21:24 33.665190 -116.772290 270 11820ft 191kts
06-Oct-19 21:25 33.666244 -116.837939 270 11086ft 197kts
06-Oct-19 21:26 33.667004 -116.903213 270 10546ft 195kts
06-Oct-19 21:27 33.667823 -116.968699 270 10002ft 194kts
06-Oct-19 21:28 33.668611 -117.033294 270 9463ft 193kts
06-Oct-19 21:29 33.669366 -117.097873 270 8922ft 192kts
06-Oct-19 21:30 33.670069 -117.161862 270 8382ft 190kts
06-Oct-19 21:31 33.670757 -117.225237 270 7844ft 189kts
06-Oct-19 21:32 33.671370 -117.286942 270 7316ft 187kts
06-Oct-19 21:33 33.671930 -117.348723 270 6780ft 184kts
06-Oct-19 21:34 33.672512 -117.410519 270 6240ft 183kts
06-Oct-19 21:35 33.673045 -117.471473 270 5703ft 182kts
06-Oct-19 21:36 33.673542 -117.532415 270 5164ft 181kts
06-Oct-19 21:37 33.674002 -117.592862 270 4625ft 180kts
06-Oct-19 21:38 33.674460 -117.652537 270 4083ft 174kts
06-Oct-19 21:39 33.674743 -117.707892 270 3208ft 158kts
06-Oct-19 21:40 33.666216 -117.748057 295 2197ft 147kts
06-Oct-19 21:41 33.683918 -117.789467 296 1743ft 117kts
06-Oct-19 21:42 33.696232 -117.818621 290 1084ft 86kts
06-Oct-19 21:43 33.702379 -117.845914 239 518ft 90kts
06-Oct-19 21:44 33.683205 -117.862251 202 110ft 77kts
06-Oct-19 21:45 33.673878 -117.867477 118 59ft 0kts
06-Oct-19 21:46 33.673491 -117.866981 172 59ft 6kts
06-Oct-19 21:47 33.671465 -117.868559 211 59ft 8kts
06-Oct-19 21:48 33.670643 -117.868532 220 59ft 0kts
06-Oct-19 21:49 33.670643 -117.868532 220 60ft 0kts
06-Oct-19 21:50 33.670643 -117.868532 220 60ft 0kts
06-Oct-19 21:51 33.670643 -117.868532 220 60ft 0kts
06-Oct-19 21:52 33.670643 -117.868532 220 60ft 0kts
06-Oct-19 21:53 33.670643 -117.868532 220 60ft 0kts
06-Oct-19 21:54 33.670643 -117.868532 220 60ft 0kts
06-Oct-19 21:55 33.670643 -117.868532 220 60ft 0kts
06-Oct-19 21:56 33.670643 -117.868532 220 60ft 0kts
06-Oct-19 21:57 33.670643 -117.868532 220 60ft 0kts
06-Oct-19 21:58 33.670643 -117.868532 220 60ft 0kts
06-Oct-19 21:59 33.670643 -117.868532 220 60ft 0kts

Navigation Log

Ident Type
Flight plan parsing failed, navigation log unavailable